LIRE

Pratica di Mare Air Base

Airport
ICAO code
LIRE
Summary
ICAO Region
EUR
ICAO Territory
Location

Pomezia, Lazio

Serving
Pomezia
Elevation
42 ft
Coordinates
41° 39' 15" N , 12° 26' 38" E
KCC
Metar
Observation
LIRE 031755Z 32004KT CAVOK 05/03 Q1026
Station
Pratica Di Mare
Date/Time
2023-02-03 18:55:00
Wind direction
320°
Wind speed
04 kts
Lowest cloud amount
clouds and visibility OK
Temperature
5°C
Dew point
3°C
Humidity
86%
QNH
1026 hPa
Weather condition
n/a

Pratica di Mare Air Base is a military airport of the Italian Air Force, located in Pomezia, Lazio, southwest of Rome. It was first opened in 1937, and in 1957, it was named after Colonnello Mario de Bernardi. It is the biggest Italian air base.

Climatology

Warm mediterranean climate (Köppen climate classification Csa)

Runways

Designator Length Width Surface Rops
13L/31R 2480 30 ASP No/No
13/31 2541 45 ASP No/No

Airport map

Aerial View

SKYbrary Partners:

Safety knowledge contributed by: